McAdoo, Texas
Current Conditions -  °F | °C
As of 1:53 PM on Tuesday 25 Nov 2014 (Local Time) from KLBB Reporting Station
Few Clouds Few Clouds  
Wind Chill: 55°   Ceiling: Unl
Heat Index: 55°   Visibility: 10mi
Dew Point: 15°   Wind: 24mph
Humidity: 21%   Direction: 230°SW
Pressure: 30.18"   Gusts: 33mph
Location:  33.73°N, 101.01°W
Report Text: KLBB 251953Z 23021G29KT 10SM FEW250 13/M09 A3018 RMK AO2 PK WND 22029/1953 SLP212 T01281094
Loading
Personal Weather Stations






























Interactive Weather Map New forecast layout! Learn more

10-Day Weather Forecast

Advertisements
Track Severe Weather on mobile